Time;durP1;ratioP1;P1;durP2;ratioP2;P2;SDS_P1;SDS_P2;PMS_P1;PMS_P2;Temp;Humidity;BMP_temperature;BMP_pressure;BME280_temperature;BME280_humidity;BME280_pressure;Samples;Min_cycle;Max_cycle;Signal;HPM_P1;HPM_P2
2023/07/17 00:01:19;;;;;;;6.88;3.58;;;;;;;25.04;50.62;99469.06;4965126;28;20469;-90
2023/07/17 00:03:45;;;;;;;7.18;3.92;;;;;;;25.00;51.46;99468.97;4947815;28;20034;-90
2023/07/17 00:06:10;;;;;;;7.47;4.00;;;;;;;25.02;51.94;99471.38;4964072;28;20113;-90
2023/07/17 00:08:36;;;;;;;10.93;7.43;;;;;;;24.98;51.38;99441.00;4963442;28;20054;-91
2023/07/17 00:11:01;;;;;;;7.75;4.10;;;;;;;24.96;51.59;99454.34;4962650;28;20014;-90
2023/07/17 00:13:27;;;;;;;5.55;3.47;;;;;;;25.05;50.84;99461.59;4963288;28;20053;-91
2023/07/17 00:15:55;;;;;;;6.72;3.65;;;;;;;24.92;50.26;99444.41;4963513;28;20412;-90
2023/07/17 00:18:21;;;;;;;7.38;3.28;;;;;;;25.05;48.08;99443.13;4964002;28;20050;-90
2023/07/17 00:20:49;;;;;;;6.20;3.13;;;;;;;25.08;45.25;99430.56;4964064;28;20046;-90
2023/07/17 00:23:14;;;;;;;6.30;3.17;;;;;;;25.14;46.71;99443.69;4948381;28;20034;-90
2023/07/17 00:25:40;;;;;;;5.75;2.70;;;;;;;25.13;45.04;99438.53;4947124;28;20543;-90
2023/07/17 00:28:05;;;;;;;5.90;3.35;;;;;;;25.11;48.66;99452.69;4962983;28;20073;-90
2023/07/17 00:30:31;;;;;;;5.13;3.13;;;;;;;25.02;50.09;99447.38;4964536;28;20093;-91
2023/07/17 00:32:56;;;;;;;4.78;3.50;;;;;;;24.85;51.47;99439.56;4963633;28;20061;-90
2023/07/17 00:35:22;;;;;;;5.97;3.00;;;;;;;24.94;50.66;99459.41;4946696;28;20033;-91
2023/07/17 00:37:47;;;;;;;4.78;3.28;;;;;;;24.88;50.62;99451.81;4963173;28;20022;-90
2023/07/17 00:40:13;;;;;;;6.07;3.20;;;;;;;24.84;50.58;99442.69;4962326;28;20551;-91
2023/07/17 00:42:38;;;;;;;6.93;3.30;;;;;;;24.85;49.16;99455.31;4963561;28;20029;-90
2023/07/17 00:45:05;;;;;;;4.22;3.05;;;;;;;24.96;45.97;99459.06;4947314;28;20054;-90
2023/07/17 00:47:31;;;;;;;4.63;2.75;;;;;;;25.05;42.51;99461.59;4962961;28;20041;-90
2023/07/17 00:49:57;;;;;;;7.07;3.20;;;;;;;25.15;40.15;99461.81;4963513;28;20026;-90
2023/07/17 00:52:22;;;;;;;6.90;2.88;;;;;;;25.19;40.22;99459.94;4963460;28;20112;-90
2023/07/17 00:54:48;;;;;;;7.70;2.90;;;;;;;25.27;39.64;99458.13;4946771;28;20030;-90
2023/07/17 00:57:14;;;;;;;3.78;2.67;;;;;;;25.17;41.37;99447.66;4963277;28;20060;-90
2023/07/17 00:59:40;;;;;;;4.55;2.95;;;;;;;25.22;43.35;99466.69;4963182;28;20022;-90
2023/07/17 01:02:09;;;;;;;5.13;3.15;;;;;;;25.06;49.62;99465.94;4963216;28;20018;-90
2023/07/17 01:04:36;;;;;;;4.50;3.00;;;;;;;25.02;48.65;99474.94;4962801;28;20031;-90
2023/07/17 01:07:02;;;;;;;4.75;3.15;;;;;;;24.80;50.41;99462.69;4946012;28;20577;-90
2023/07/17 01:09:28;;;;;;;4.15;2.90;;;;;;;24.80;49.00;99459.94;4962962;28;20109;-90
2023/07/17 01:11:53;;;;;;;4.63;2.80;;;;;;;24.76;44.19;99450.03;4963024;28;20080;-91
2023/07/17 01:14:19;;;;;;;3.30;2.65;;;;;;;24.76;44.23;99448.06;4947061;28;20091;-90
2023/07/17 01:16:48;;;;;;;7.45;3.22;;;;;;;24.78;44.44;99454.00;4962588;28;20177;-90
2023/07/17 01:19:14;;;;;;;5.97;3.20;;;;;;;24.87;46.67;99477.78;4963435;28;20100;-91
2023/07/17 01:21:59;;;;;;;5.65;2.78;;;;;;;24.86;43.93;99467.91;4963876;28;20022;-90
2023/07/17 01:24:24;;;;;;;8.70;2.53;;;;;;;24.89;42.96;99481.75;4963397;28;20115;-90
2023/07/17 01:26:50;;;;;;;5.47;3.08;;;;;;;24.87;42.83;99462.03;4963270;28;20022;-91
2023/07/17 01:29:16;;;;;;;6.47;2.85;;;;;;;24.98;42.58;99463.03;4946781;28;20018;-91
2023/07/17 01:31:42;;;;;;;10.43;3.10;;;;;;;25.06;42.45;99466.75;4946771;28;20030;-90
2023/07/17 01:34:08;;;;;;;4.15;2.35;;;;;;;24.96;42.38;99445.28;4963558;28;20006;-90
2023/07/17 01:36:33;;;;;;;4.30;2.95;;;;;;;25.09;42.08;99468.78;4962586;28;20053;-90
2023/07/17 01:38:59;;;;;;;6.13;2.95;;;;;;;25.07;41.42;99459.25;4947197;28;20026;-90
2023/07/17 01:41:24;;;;;;;4.82;2.70;;;;;;;25.15;41.76;99478.34;4946366;28;20481;-90
2023/07/17 01:43:50;;;;;;;4.05;2.63;;;;;;;25.13;41.58;99466.91;4963000;28;20034;-90
2023/07/17 01:46:16;;;;;;;5.68;2.85;;;;;;;25.06;41.03;99452.19;4963238;28;20067;-91
2023/07/17 01:48:41;;;;;;;5.57;2.70;;;;;;;25.12;40.36;99461.75;4966701;28;20033;-90
2023/07/17 01:51:06;;;;;;;4.85;3.08;;;;;;;25.09;40.00;99452.25;4966585;28;20018;-90
2023/07/17 01:53:32;;;;;;;5.28;2.90;;;;;;;25.17;40.01;99464.19;4950011;28;20031;-90
2023/07/17 01:55:59;;;;;;;5.88;3.20;;;;;;;25.16;40.26;99457.88;4950297;28;20113;-91
2023/07/17 01:58:25;;;;;;;4.93;2.80;;;;;;;25.19;40.71;99459.09;4966916;28;20140;-91
2023/07/17 02:00:54;;;;;;;4.88;3.05;;;;;;;25.06;47.30;99454.94;4966456;28;20026;-90
2023/07/17 02:03:20;;;;;;;4.93;3.17;;;;;;;25.03;48.63;99459.22;4966602;28;20080;-90
2023/07/17 02:05:45;;;;;;;6.57;3.38;;;;;;;24.90;49.87;99458.56;4965883;28;20030;-90
2023/07/17 02:08:11;;;;;;;5.60;3.05;;;;;;;24.91;47.92;99465.66;4965178;28;20570;-90
2023/07/17 02:10:43;;;;;;;4.47;3.20;;;;;;;24.89;42.50;99458.94;4966092;28;20420;-90
2023/07/17 02:13:08;;;;;;;5.35;3.17;;;;;;;24.98;42.75;99468.56;4967360;28;20026;-90
2023/07/17 02:15:34;;;;;;;8.43;3.00;;;;;;;24.98;43.04;99465.00;4950539;28;20390;-90
2023/07/17 02:18:00;;;;;;;8.10;3.25;;;;;;;24.84;46.79;99471.03;4965228;28;20437;-90
2023/07/17 02:20:25;;;;;;;5.22;3.08;;;;;;;24.60;46.16;99467.38;4965278;28;20053;-90
2023/07/17 02:22:51;;;;;;;4.90;2.85;;;;;;;24.51;45.61;99460.47;4949330;28;20116;-90
2023/07/17 02:25:17;;;;;;;5.95;3.28;;;;;;;24.48;46.05;99463.94;4965393;28;20037;-90
2023/07/17 02:27:42;;;;;;;4.05;3.00;;;;;;;24.34;45.45;99456.97;4964616;28;20080;-90
2023/07/17 02:30:08;;;;;;;4.35;3.05;;;;;;;24.39;45.11;99453.94;4948821;28;20456;-90
2023/07/17 02:32:34;;;;;;;7.63;3.30;;;;;;;24.47;44.95;99443.88;4965544;28;20029;-90
2023/07/17 02:34:59;;;;;;;6.10;3.30;;;;;;;24.55;46.23;99458.59;4950214;28;20410;-90
2023/07/17 02:37:25;;;;;;;10.35;3.60;;;;;;;24.55;44.75;99453.09;4965563;28;20034;-89
2023/07/17 02:39:51;;;;;;;7.72;3.40;;;;;;;24.63;44.80;99454.84;4966488;28;20034;-90
2023/07/17 02:42:16;;;;;;;4.70;3.10;;;;;;;24.66;45.51;99472.63;4966905;28;20109;-90
2023/07/17 02:44:43;;;;;;;5.57;3.30;;;;;;;24.68;45.00;99478.56;4950502;28;20069;-90
2023/07/17 02:47:08;;;;;;;4.68;3.28;;;;;;;24.43;45.60;99469.72;4965730;28;20075;-90
2023/07/17 02:49:33;;;;;;;4.18;2.92;;;;;;;24.42;47.21;99485.44;4949202;28;20042;-90
2023/07/17 02:51:59;;;;;;;7.25;3.80;;;;;;;24.32;50.12;99470.28;4949046;28;20034;-89
2023/07/17 02:54:24;;;;;;;10.75;3.50;;;;;;;24.16;51.54;99475.03;4948371;28;20045;-89
2023/07/17 02:56:52;;;;;;;4.68;3.17;;;;;;;24.15;52.05;99476.16;4964601;28;20023;-89
2023/07/17 02:59:18;;;;;;;5.68;3.55;;;;;;;24.03;52.85;99468.00;4964906;28;20535;-89
2023/07/17 03:01:44;;;;;;;10.50;3.83;;;;;;;24.05;52.64;99472.03;4966032;28;20023;-89
2023/07/17 03:04:09;;;;;;;5.63;3.25;;;;;;;23.92;52.68;99457.53;4965877;28;20046;-89
2023/07/17 03:06:35;;;;;;;4.03;3.00;;;;;;;23.94;52.36;99458.00;4965658;28;20037;-90
2023/07/17 03:09:00;;;;;;;8.60;3.55;;;;;;;23.90;53.54;99472.81;4965145;28;20030;-90
2023/07/17 03:11:26;;;;;;;7.72;3.60;;;;;;;23.77;53.49;99447.38;4965347;28;20484;-91
2023/07/17 03:13:51;;;;;;;8.23;3.63;;;;;;;23.90;53.21;99470.06;4965324;28;20071;-90
2023/07/17 03:16:17;;;;;;;5.80;3.63;;;;;;;23.89;51.99;99461.03;4948522;28;20030;-90
2023/07/17 03:19:01;;;;;;;9.32;3.33;;;;;;;23.95;51.41;99456.06;4950595;28;20062;-89
2023/07/17 03:21:27;;;;;;;12.25;4.00;;;;;;;23.97;49.84;99462.00;4929183;28;20049;-91
2023/07/17 03:23:53;;;;;;;5.43;3.15;;;;;;;24.08;50.09;99467.75;4960139;28;20027;-90
2023/07/17 03:26:18;;;;;;;5.43;2.90;;;;;;;23.99;49.55;99451.44;4947416;28;20027;-90
2023/07/17 03:28:45;;;;;;;5.95;3.30;;;;;;;23.99;52.09;99456.94;4959995;28;20074;-90
2023/07/17 03:31:10;;;;;;;4.18;3.20;;;;;;;24.09;51.50;99481.13;4945231;28;20109;-92
2023/07/17 03:33:38;;;;;;;5.25;3.20;;;;;;;23.89;52.10;99472.03;4945006;28;20029;-92
2023/07/17 03:36:06;;;;;;;5.25;3.67;;;;;;;23.90;54.89;99473.59;4961091;28;20038;-91
2023/07/17 03:38:32;;;;;;;5.45;3.65;;;;;;;23.98;54.97;99480.09;4961558;28;20033;-92
2023/07/17 03:40:57;;;;;;;92.40;11.43;;;;;;;23.93;54.30;99483.13;4962543;28;20034;-92
2023/07/17 03:43:44;;;;;;;52.50;7.45;;;;;;;23.80;51.96;99463.97;4947024;28;20077;-92
2023/07/17 03:46:10;;;;;;;4.93;3.40;;;;;;;23.87;49.17;99471.59;4976448;28;20039;-92
2023/07/17 03:48:36;;;;;;;5.45;3.50;;;;;;;23.99;49.14;99479.75;4961007;28;20045;-91
2023/07/17 03:51:01;;;;;;;8.77;3.45;;;;;;;23.93;49.77;99474.88;4960533;28;20022;-92
2023/07/17 03:53:27;;;;;;;8.45;3.50;;;;;;;24.11;49.42;99486.28;4943983;28;20034;-92
2023/07/17 03:55:52;;;;;;;9.63;3.60;;;;;;;24.06;47.23;99470.84;4944519;28;20028;-91
2023/07/17 03:58:21;;;;;;;8.70;3.63;;;;;;;24.09;47.18;99470.13;4960329;28;20050;-92
2023/07/17 04:00:47;;;;;;;9.32;5.03;;;;;;;24.09;47.42;99472.88;4960470;28;20026;-91
2023/07/17 04:03:13;;;;;;;6.63;3.70;;;;;;;24.21;47.56;99485.75;4943688;28;20033;-92
2023/07/17 04:05:38;;;;;;;5.97;3.55;;;;;;;24.11;49.54;99480.78;4960987;28;20481;-90
2023/07/17 04:08:04;;;;;;;9.18;4.03;;;;;;;24.26;49.39;99484.66;4960891;28;20033;-92
2023/07/17 04:10:29;;;;;;;5.55;3.53;;;;;;;24.30;49.92;99493.78;4963481;28;20054;-95
2023/07/17 04:12:55;;;;;;;7.68;3.63;;;;;;;24.36;48.50;99495.13;4948762;28;20033;-94
2023/07/17 04:15:20;;;;;;;5.72;3.45;;;;;;;24.35;47.67;99480.56;4947469;28;20015;-93
2023/07/17 04:17:46;;;;;;;6.72;2.90;;;;;;;24.50;46.39;99480.91;4962019;28;20027;-93
2023/07/17 04:20:11;;;;;;;5.53;3.20;;;;;;;24.63;44.83;99482.38;4956625;28;20053;-93
2023/07/17 04:22:37;;;;;;;6.57;4.03;;;;;;;24.72;46.10;99502.25;4966750;28;20033;-92
2023/07/17 04:25:04;;;;;;;4.97;3.22;;;;;;;24.72;45.52;99495.97;4970446;28;20022;-92
2023/07/17 04:27:30;;;;;;;7.55;3.33;;;;;;;24.88;44.98;99518.75;4963909;28;20026;-94
2023/07/17 04:29:56;;;;;;;5.22;3.13;;;;;;;24.91;46.26;99495.19;4965031;28;20100;-92
2023/07/17 04:32:25;;;;;;;8.63;3.70;;;;;;;24.72;47.51;99482.19;4964021;28;20042;-93
2023/07/17 04:34:50;;;;;;;7.13;3.08;;;;;;;24.87;45.28;99486.03;4964731;28;20459;-94
2023/07/17 04:37:18;;;;;;;5.60;3.78;;;;;;;24.97;46.14;99502.00;4979839;28;20030;-94
2023/07/17 04:39:44;;;;;;;8.25;3.50;;;;;;;25.08;47.10;99497.47;4963553;28;20380;-93
2023/07/17 04:42:12;;;;;;;9.05;3.50;;;;;;;25.05;47.67;99505.66;4963640;28;20030;-93
2023/07/17 04:44:38;;;;;;;7.95;3.63;;;;;;;25.16;47.00;99501.19;4965227;28;20449;-92
2023/07/17 04:47:04;;;;;;;6.82;3.50;;;;;;;25.12;47.13;99503.88;4963863;28;20034;-92
2023/07/17 04:49:29;;;;;;;6.28;3.47;;;;;;;25.16;48.01;99509.47;4964646;28;20045;-92
2023/07/17 04:51:57;;;;;;;5.00;3.03;;;;;;;25.04;47.06;99498.56;4963292;28;20165;-93
2023/07/17 04:54:22;;;;;;;8.95;3.70;;;;;;;25.07;47.08;99517.94;4963788;28;20405;-93
2023/07/17 04:56:51;;;;;;;5.85;3.42;;;;;;;24.97;48.24;99508.28;4948371;28;20030;-93
2023/07/17 04:59:19;;;;;;;5.70;3.50;;;;;;;24.97;47.72;99507.50;4950008;28;20022;-93
2023/07/17 05:01:44;;;;;;;6.13;3.30;;;;;;;25.09;47.23;99509.28;4966785;28;20022;-92
2023/07/17 05:04:10;;;;;;;9.05;4.00;;;;;;;25.20;46.60;99516.66;4950990;28;20023;-93
2023/07/17 05:06:36;;;;;;;5.38;3.75;;;;;;;25.17;46.91;99500.00;4949387;28;20037;-94
2023/07/17 05:09:02;;;;;;;11.98;3.83;;;;;;;25.41;46.81;99540.28;4969467;28;20038;-96
2023/07/17 05:11:32;;;;;;;5.22;3.80;;;;;;;25.41;46.54;99526.50;4967188;28;20018;-94
2023/07/17 05:14:00;;;;;;;10.15;4.35;;;;;;;25.37;47.11;99509.09;4968632;28;20089;-95
2023/07/17 05:16:26;;;;;;;7.93;5.82;;;;;;;25.28;46.59;99514.84;4952102;28;20069;-92
2023/07/17 05:18:52;;;;;;;13.57;11.18;;;;;;;25.46;45.67;99501.38;4951290;28;20034;-93
2023/07/17 05:21:25;;;;;;;7.50;5.40;;;;;;;25.55;45.25;99521.25;4988394;28;20140;-92
2023/07/17 05:24:13;;;;;;;8.52;4.10;;;;;;;25.54;45.75;99518.88;4989896;28;20116;-92
2023/07/17 05:27:05;;;;;;;7.10;3.35;;;;;;;25.58;45.21;99508.69;4985330;28;20042;-93
2023/07/17 05:29:33;;;;;;;5.45;3.45;;;;;;;25.57;44.74;99505.16;4988933;28;20035;-92
2023/07/17 05:32:32;;;;;;;5.40;3.75;;;;;;;25.82;44.53;99537.91;4991768;28;20034;-94
2023/07/17 05:35:48;;;;;;;7.68;3.70;;;;;;;25.69;45.69;99508.88;4989567;28;20113;-93
2023/07/17 05:38:19;;;;;;;8.70;4.30;;;;;;;25.84;45.98;99540.28;5003740;28;20034;-93
2023/07/17 05:44:10;;;;;;;7.28;3.80;;;;;;;25.77;46.06;99519.69;4964314;29;20039;-91
2023/07/17 05:46:36;;;;;;;6.85;4.00;;;;;;;25.81;46.58;99539.84;4949349;28;20080;-93
2023/07/17 05:49:01;;;;;;;5.57;3.47;;;;;;;25.85;46.17;99526.13;4985723;28;20022;-92
2023/07/17 05:51:31;;;;;;;5.88;3.63;;;;;;;25.92;45.04;99530.97;4988085;28;20503;-92
2023/07/17 05:53:57;;;;;;;8.18;3.80;;;;;;;26.02;44.82;99527.59;4987895;28;20088;-92
2023/07/17 05:56:24;;;;;;;8.38;4.40;;;;;;;26.16;45.67;99547.16;4996467;28;20473;-93
2023/07/17 05:58:49;;;;;;;11.10;4.40;;;;;;;26.07;45.50;99524.56;4978838;28;20543;-94
2023/07/17 06:01:21;;;;;;;6.88;4.10;;;;;;;26.33;45.62;99542.31;4963040;28;20045;-91
2023/07/17 06:03:47;;;;;;;16.92;4.30;;;;;;;26.40;46.00;99537.69;4952049;28;20030;-90
2023/07/17 06:06:12;;;;;;;26.45;4.72;;;;;;;26.59;45.26;99542.34;4971765;28;20037;-90
2023/07/17 06:08:38;;;;;;;12.27;5.60;;;;;;;26.67;45.56;99528.66;4953834;28;20072;-90
2023/07/17 06:11:06;;;;;;;9.15;4.70;;;;;;;26.83;45.22;99534.75;4969036;28;20034;-90
2023/07/17 06:13:31;;;;;;;6.68;4.38;;;;;;;26.93;45.32;99531.34;4967794;28;20116;-92
2023/07/17 06:16:00;;;;;;;12.68;4.28;;;;;;;27.07;45.45;99541.78;4953188;28;20034;-92
2023/07/17 06:18:37;;;;;;;8.10;4.95;;;;;;;27.33;45.14;99545.69;4974137;28;20042;-93
2023/07/17 06:21:13;;;;;;;;;;;;;;;;;;;;;
2023/07/17 06:23:39;;;;;;;7.88;4.07;;;;;;;27.42;44.68;99546.97;4993494;28;20086;-92
2023/07/17 06:26:05;;;;;;;7.75;4.30;;;;;;;27.35;45.16;99523.97;4981062;28;20035;-92
2023/07/17 06:28:30;;;;;;;7.10;4.05;;;;;;;27.48;44.70;99519.00;4972577;28;20026;-93
2023/07/17 06:31:04;;;;;;;6.47;4.28;;;;;;;27.63;44.64;99517.97;4980394;28;20495;-92
2023/07/17 06:33:39;;;;;;;8.82;4.18;;;;;;;27.88;44.63;99531.28;4994693;28;20085;-94
2023/07/17 06:39:44;;;;;;;7.43;4.38;;;;;;;28.03;44.69;99532.97;4954721;28;20070;-92
2023/07/17 06:42:11;;;;;;;8.88;4.93;;;;;;;28.16;44.61;99528.75;4954711;28;20101;-92
2023/07/17 06:44:37;;;;;;;10.55;4.15;;;;;;;28.23;44.72;99528.00;4965882;28;20030;-91
2023/07/17 06:47:02;;;;;;;11.25;4.93;;;;;;;28.28;44.91;99518.53;4978192;28;20037;-92
2023/07/17 06:49:41;;;;;;;14.93;8.25;;;;;;;28.44;43.97;99521.81;4963566;28;20042;-92
2023/07/17 06:52:09;;;;;;;8.23;4.40;;;;;;;28.50;44.89;99533.38;4967763;28;20049;-94
2023/07/17 06:55:24;;;;;;;7.63;4.65;;;;;;;28.63;44.87;99529.06;4967934;28;20098;-92
2023/07/17 07:06:00;;;;;;;6.47;4.40;;;;;;;29.31;43.52;99528.63;5061408;23;20184;-94
2023/07/17 07:08:37;;;;;;;;;;;;;;;;;;;;;
2023/07/17 07:11:07;;;;;;;7.95;4.80;;;;;;;29.36;43.48;99517.13;4995880;28;20109;-96
2023/07/17 07:13:34;;;;;;;6.82;4.80;;;;;;;29.46;43.59;99507.25;4978242;28;20065;-96
2023/07/17 07:15:59;;;;;;;13.30;7.22;;;;;;;29.70;43.33;99519.59;5011931;28;20506;-95
2023/07/17 07:18:25;;;;;;;14.07;8.82;;;;;;;29.57;43.79;99497.78;4975811;28;20033;-96
2023/07/17 07:20:51;;;;;;;7.43;4.68;;;;;;;29.67;43.85;99510.06;4977237;28;20033;-96
2023/07/17 07:23:22;;;;;;;8.60;4.75;;;;;;;29.93;43.52;99511.72;4979731;28;20113;-96
2023/07/17 07:26:39;;;;;;;;;;;;;;;;;;;;;
2023/07/17 07:32:35;;;;;;;13.45;5.30;;;;;;;30.05;43.36;99490.28;4983825;28;20508;-96
2023/07/17 07:35:13;;;;;;;7.10;5.07;;;;;;;30.36;43.17;99497.81;4989817;28;20026;-90
2023/07/17 07:37:39;;;;;;;9.43;5.30;;;;;;;30.21;43.44;99499.78;4966455;28;20037;-94
2023/07/17 07:40:09;;;;;;;10.27;4.85;;;;;;;30.40;42.93;99498.59;4972897;28;20061;-96
2023/07/17 07:42:37;;;;;;;7.80;5.10;;;;;;;30.61;42.89;99500.53;4975086;28;20025;-95
2023/07/17 07:45:36;;;;;;;11.18;5.05;;;;;;;30.66;42.60;99490.19;4971508;28;20089;-96
2023/07/17 07:48:19;;;;;;;11.57;7.38;;;;;;;30.81;42.72;99500.06;4937311;28;20039;-96
2023/07/17 07:51:13;;;;;;;11.80;7.20;;;;;;;31.02;43.18;99515.91;4928022;29;20027;-93
2023/07/17 07:54:02;;;;;;;12.40;6.78;;;;;;;31.13;42.54;99499.97;4946150;29;20035;-96
2023/07/17 07:56:28;;;;;;;9.40;7.22;;;;;;;31.17;42.84;99495.19;4960620;29;20550;-93
2023/07/17 07:58:56;;;;;;;10.82;6.40;;;;;;;31.10;42.67;99486.84;4950902;29;20039;-95
2023/07/17 08:01:24;;;;;;;7.93;5.35;;;;;;;31.29;42.65;99512.59;4951362;29;20035;-94
2023/07/17 08:03:52;;;;;;;10.07;5.18;;;;;;;31.22;41.98;99497.53;4949341;29;20027;-93
2023/07/17 08:06:21;;;;;;;7.35;5.32;;;;;;;31.26;42.58;99524.56;4948196;29;20053;-94
2023/07/17 08:08:55;;;;;;;7.22;5.28;;;;;;;30.98;42.25;99493.69;4948837;29;20039;-96
2023/07/17 08:11:32;;;;;;;10.45;6.28;;;;;;;31.05;43.04;99498.41;4944742;29;20039;-95
2023/07/17 08:17:41;;;;;;;11.77;5.82;;;;;;;31.08;43.56;99492.03;4908283;29;20051;-96
2023/07/17 08:22:48;;;;;;;7.97;5.50;;;;;;;31.30;42.98;99498.28;5086752;23;20058;-94
2023/07/17 08:25:24;;;;;;;10.98;6.13;;;;;;;31.40;42.92;99493.88;4989634;28;20045;-92
2023/07/17 08:27:52;;;;;;;9.18;5.90;;;;;;;31.64;42.52;99506.03;4982583;28;20060;-93
2023/07/17 08:30:56;;;;;;;9.07;5.93;;;;;;;31.61;42.35;99492.94;4968555;28;20034;-92
2023/07/17 08:33:25;;;;;;;9.38;5.95;;;;;;;31.85;42.11;99498.72;4972612;28;20030;-93
2023/07/17 08:35:51;;;;;;;9.50;5.60;;;;;;;31.81;42.38;99490.41;4989036;28;20025;-91
2023/07/17 08:38:19;;;;;;;18.27;13.95;;;;;;;32.04;42.09;99498.19;4986565;28;20037;-92
2023/07/17 08:40:53;;;;;;;15.80;9.93;;;;;;;32.00;42.28;99480.72;4965316;28;20021;-91
2023/07/17 08:43:24;;;;;;;6.57;5.80;;;;;;;32.15;41.82;99482.19;4957777;28;20025;-92
2023/07/17 08:45:51;;;;;;;8.15;6.28;;;;;;;32.28;41.56;99490.81;4972531;28;20022;-92
2023/07/17 08:48:16;;;;;;;7.68;5.80;;;;;;;32.43;42.00;99483.09;4986695;28;20074;-92
2023/07/17 08:51:04;;;;;;;18.25;6.65;;;;;;;32.50;41.07;99471.06;4988782;28;20071;-91
2023/07/17 08:53:33;;;;;;;9.98;6.60;;;;;;;32.73;40.85;99490.75;4987356;28;20568;-94
2023/07/17 08:56:08;;;;;;;8.23;6.38;;;;;;;32.73;41.38;99476.03;4987223;28;20030;-93
2023/07/17 08:58:37;;;;;;;10.70;6.10;;;;;;;32.68;40.62;99479.25;4995565;28;20083;-95
2023/07/17 09:01:03;;;;;;;14.77;6.75;;;;;;;32.73;40.33;99476.81;4973328;28;20494;-92
2023/07/17 09:03:32;;;;;;;9.85;6.88;;;;;;;32.85;40.64;99480.25;4963486;28;20034;-89
2023/07/17 09:06:00;;;;;;;8.75;5.90;;;;;;;32.87;40.57;99477.84;4941019;28;20129;-89
2023/07/17 09:08:26;;;;;;;10.57;7.25;;;;;;;32.85;40.75;99475.44;4962095;28;20048;-91
2023/07/17 09:11:28;;;;;;;7.80;6.32;;;;;;;33.08;39.96;99493.53;4963536;28;20038;-90
2023/07/17 09:13:53;;;;;;;16.02;6.85;;;;;;;32.96;40.25;99469.75;4971717;28;20027;-92
2023/07/17 09:16:26;;;;;;;7.97;6.50;;;;;;;32.98;41.02;99486.88;4967715;28;20089;-90
2023/07/17 09:22:41;;;;;;;11.07;5.63;;;;;;;32.95;40.09;99466.16;4903025;29;20052;-89
2023/07/17 09:26:00;;;;;;;;;;;;;;;;;;;;;
2023/07/17 09:28:29;;;;;;;12.75;7.15;;;;;;;33.39;40.48;99453.22;4886692;29;20128;-90
2023/07/17 09:31:02;;;;;;;9.82;6.35;;;;;;;33.42;39.15;99466.31;4867775;29;20036;-90
2023/07/17 09:33:37;;;;;;;9.40;6.15;;;;;;;33.61;40.20;99462.06;4953976;29;20042;-95
2023/07/17 09:36:03;;;;;;;9.18;6.15;;;;;;;33.66;39.90;99460.00;4935032;29;20039;-95
2023/07/17 09:39:02;;;;;;;12.07;7.15;;;;;;;33.73;39.86;99448.75;4924786;29;20063;-95
2023/07/17 09:41:29;;;;;;;12.00;5.82;;;;;;;33.97;38.63;99469.88;4965868;29;20035;-96
2023/07/17 09:44:27;;;;;;;7.97;6.10;;;;;;;34.00;39.29;99454.25;4954926;28;20035;-96
2023/07/17 09:46:55;;;;;;;7.18;5.22;;;;;;;34.00;38.12;99451.47;4920199;29;20030;-96
2023/07/17 09:49:23;;;;;;;9.20;5.50;;;;;;;34.13;38.40;99460.03;4953756;29;20113;-95
2023/07/17 09:51:56;;;;;;;8.45;5.53;;;;;;;34.13;38.35;99452.44;4954155;29;20062;-96
2023/07/17 09:54:22;;;;;;;10.20;5.03;;;;;;;34.10;38.38;99446.91;4923358;29;20031;-95
2023/07/17 09:56:47;;;;;;;7.25;5.57;;;;;;;34.14;38.27;99450.44;4955064;28;20047;-95
2023/07/17 09:59:24;;;;;;;8.25;4.97;;;;;;;34.33;38.07;99460.84;4961111;28;20030;-94
2023/07/17 10:02:06;;;;;;;10.10;6.50;;;;;;;34.29;38.65;99462.16;4978689;28;20025;-96
2023/07/17 10:10:26;;;;;;;7.55;5.18;;;;;;;34.25;38.30;99467.81;5005715;28;20054;-91
2023/07/17 10:13:48;;;;;;;7.78;5.28;;;;;;;34.37;37.97;99458.78;4990206;28;20025;-92
2023/07/17 10:16:18;;;;;;;7.53;5.65;;;;;;;34.37;37.86;99441.22;5033395;28;20037;-91
2023/07/17 10:18:48;;;;;;;9.63;5.18;;;;;;;34.36;37.89;99440.41;5005762;28;20091;-90
2023/07/17 10:21:16;;;;;;;5.70;5.10;;;;;;;34.37;38.21;99446.81;5005764;28;20029;-88
2023/07/17 10:23:49;;;;;;;6.35;5.13;;;;;;;34.17;38.05;99438.41;5003469;28;20030;-91
2023/07/17 10:26:24;;;;;;;10.45;7.40;;;;;;;34.34;38.08;99456.84;5025139;28;20044;-92
2023/07/17 10:28:54;;;;;;;11.30;7.13;;;;;;;34.39;37.82;99438.78;5003635;28;20033;-92
2023/07/17 10:31:28;;;;;;;6.57;5.15;;;;;;;34.28;37.69;99430.59;5029620;28;20049;-91
2023/07/17 10:34:05;;;;;;;6.75;4.90;;;;;;;34.35;37.56;99443.66;5005929;28;20384;-89
2023/07/17 10:36:45;;;;;;;7.13;5.47;;;;;;;34.21;37.72;99441.91;5007078;28;20086;-90
2023/07/17 10:39:25;;;;;;;6.10;5.22;;;;;;;34.39;37.79;99436.78;5008420;28;20491;-91
2023/07/17 10:41:51;;;;;;;9.65;6.10;;;;;;;34.45;37.91;99439.06;5005892;28;20155;-90
2023/07/17 10:44:40;;;;;;;9.13;4.70;;;;;;;34.28;36.67;99411.03;5010578;28;20505;-90
2023/07/17 10:47:49;;;;;;;9.52;5.05;;;;;;;34.41;35.57;99447.53;4985786;28;20127;-90
2023/07/17 10:50:30;;;;;;;6.45;4.65;;;;;;;34.45;35.85;99437.06;5028394;28;20022;-89
2023/07/17 10:53:09;;;;;;;6.53;4.68;;;;;;;34.22;36.98;99424.72;5006272;28;20124;-90
2023/07/17 10:55:59;;;;;;;5.00;4.50;;;;;;;34.14;34.50;99425.28;5041430;28;20048;-90
2023/07/17 10:58:40;;;;;;;8.77;4.40;;;;;;;34.18;33.38;99409.22;5038569;28;20529;-91
2023/07/17 11:01:08;;;;;;;6.30;4.38;;;;;;;34.27;33.64;99425.44;5010205;28;20044;-92
2023/07/17 11:03:47;;;;;;;5.47;4.50;;;;;;;34.27;33.65;99420.66;5009626;28;20040;-91
2023/07/17 11:06:20;;;;;;;6.60;4.22;;;;;;;34.11;34.29;99410.13;5050800;28;20029;-94
2023/07/17 11:08:56;;;;;;;7.78;4.60;;;;;;;34.12;33.73;99405.34;5031948;28;20037;-95
2023/07/17 11:11:27;;;;;;;5.88;4.65;;;;;;;34.08;33.02;99424.97;5016041;28;20041;-95
2023/07/17 11:14:07;;;;;;;;;;;;;;;;;;;;;
2023/07/17 11:16:33;;;;;;;8.05;4.07;;;;;;;34.42;32.94;99419.13;5034524;28;20049;-96
2023/07/17 11:19:04;;;;;;;10.48;4.53;;;;;;;34.46;33.63;99410.69;5029632;28;20026;-96
2023/07/17 11:21:36;;;;;;;7.05;4.68;;;;;;;34.46;33.79;99412.69;5019496;28;20021;-96
2023/07/17 11:27:18;;;;;;;8.60;5.05;;;;;;;34.39;34.75;99389.25;5031331;28;20056;-96
2023/07/17 11:29:50;;;;;;;7.07;4.68;;;;;;;34.46;35.52;99398.72;5011204;28;20052;-96
2023/07/17 11:32:53;;;;;;;8.18;4.90;;;;;;;34.55;35.40;99422.09;5017711;28;20029;-96
2023/07/17 11:35:23;;;;;;;4.72;4.18;;;;;;;34.39;33.85;99422.03;5008663;28;20410;-96
2023/07/17 11:45:08;;;;;;;10.10;6.57;;;;;;;34.10;33.97;99399.41;4978622;28;20041;-92
2023/07/17 11:47:35;;;;;;;6.20;4.20;;;;;;;34.15;33.72;99413.66;4914255;28;20087;-89
2023/07/17 11:50:39;;;;;;;8.85;4.90;;;;;;;34.05;33.42;99395.06;4948158;28;20035;-90
2023/07/17 11:53:13;;;;;;;8.25;4.25;;;;;;;34.12;33.40;99397.75;4924385;29;20043;-88
2023/07/17 11:59:27;;;;;;;12.95;4.50;;;;;;;34.28;32.95;99371.88;4953813;28;20142;-90
2023/07/17 12:01:58;;;;;;;8.63;4.43;;;;;;;34.35;31.09;99374.56;4932253;29;20031;-91
2023/07/17 12:08:44;;;;;;;;;;;;;;;;;;;;;
2023/07/17 12:11:16;;;;;;;5.35;4.43;;;;;;;34.89;29.77;99369.84;4924478;29;20596;-90
2023/07/17 12:13:57;;;;;;;8.35;4.63;;;;;;;34.98;28.77;99373.59;4928602;29;20130;-91
2023/07/17 12:29:39;;;;;;;6.88;4.88;;;;;;;35.63;29.58;99360.84;4912079;29;20479;-88
2023/07/17 13:14:26;;;;;;;5.45;4.35;;;;;;;36.14;27.62;99341.50;4966110;29;20081;-94
2023/07/17 13:22:22;;;;;;;13.02;5.70;;;;;;;35.70;27.99;99338.28;5535443;23;20046;-94
2023/07/17 13:25:38;;;;;;;8.85;4.35;;;;;;;35.93;28.38;99351.28;5004989;28;20081;-94
2023/07/17 13:28:05;;;;;;;42.75;38.13;;;;;;;35.76;28.30;99341.34;5009998;28;20029;-95
2023/07/17 13:45:49;;;;;;;5.38;4.38;;;;;;;36.51;29.56;99328.00;4950563;29;20050;-96
2023/07/17 13:48:21;;;;;;;15.95;10.45;;;;;;;36.38;29.01;99325.19;4970948;28;20048;-96
2023/07/17 13:51:38;;;;;;;7.88;5.43;;;;;;;36.34;28.62;99318.91;4955868;29;20007;-96
2023/07/17 13:54:03;;;;;;;6.65;4.60;;;;;;;36.71;28.96;99330.63;4970926;28;20035;-93
2023/07/17 13:59:57;;;;;;;9.88;4.88;;;;;;;37.65;28.30;99319.97;4967646;28;20035;-90
2023/07/17 14:02:22;;;;;;;7.55;5.40;;;;;;;38.20;28.16;99306.31;4930763;28;20096;-96
2023/07/17 14:04:57;;;;;;;5.93;4.85;;;;;;;38.55;27.03;99330.75;4957577;28;20120;-95
2023/07/17 14:07:32;;;;;;;8.05;4.68;;;;;;;37.90;28.52;99302.19;4959833;28;20031;-96
2023/07/17 14:09:58;;;;;;;11.32;4.10;;;;;;;37.59;28.49;99313.34;4961770;28;20046;-96